SLCO2: Lee Creek At Short, OK
Data processed at Tue 07Mar2023 05:05 GMT
All information presented herein is the property of the government of the United States of America and may be revised or deleted at any time without prior notice.
Dissemination of this information without the expressed written consent of the Public Affairs Office, Tulsa District U.S. Army Corps of Engineers is strictly prohibited.
These data are gathered electronically and, as presented, have not undergone any form of quality control. These data are not guaranteed to be valid or correct.
Go to home page.
Go to station list.
Downstream station:
Previous Day
Next Day
Current Day
SHEF ID: SLCO2 Lee Creek near Short, OK
STATION TYPE:
PRECIP STAGE RIV-FLOW BAT-LOAD
in ft cfs volt
Ccp-Rev Ccp-Rev Ccp-Rev Ccp-Rev
(US/Central)
03/06 00:00 0.00 4.50 896 12.97
03/06 01:00 0.00 4.49 891 12.97
03/06 02:00 0.00 4.43 859 12.97
03/06 03:00 0.00 4.43 859 12.89
03/06 04:00 0.00 4.42 854 12.89
03/06 05:00 0.00 4.42 854 12.89
03/06 06:00 0.00 4.34 811 12.89
03/06 07:00 0.00 4.34 811 12.81
03/06 08:00 0.00 4.31 795 12.89
03/06 09:00 0.00 4.27 773 13.13
03/06 10:00 0.00 4.32 800 13.29
03/06 11:00 0.00 4.26 768 13.53
03/06 12:00 0.00 4.29 784 13.44
03/06 13:00 0.00 4.24 757 13.37
03/06 14:00 0.00 4.25 762 14.56
03/06 15:00 0.00 4.25 762 13.37
03/06 16:00 0.00 4.15 709 13.29
03/06 17:00 0.00 4.19 730 13.29
03/06 18:00 0.00 4.13 699 13.13
03/06 19:00 0.00 4.21 741 13.05
03/06 20:00 0.00 4.18 725 13.05
03/06 21:00 0.00 4.11 689 13.05
03/06 22:00 0.00 4.08 674 13.05
03/06 23:00 ---- ---- ---- ----